createdAt,value
2023-04-27T00:00:01.178Z,99672.44
2023-04-27T00:02:30.339Z,99676.44
2023-04-27T00:04:59.550Z,99687.25
2023-04-27T00:07:32.010Z,99670.66
2023-04-27T00:10:02.889Z,99680.88
2023-04-27T00:12:32.030Z,99680.09
2023-04-27T00:15:08.121Z,99679.00
2023-04-27T00:17:40.419Z,99694.78
2023-04-27T00:20:12.129Z,99693.38
2023-04-27T00:22:43.068Z,99694.13
2023-04-27T00:25:14.192Z,99686.38
2023-04-27T00:27:46.366Z,99718.41
2023-04-27T00:30:18.547Z,99724.31
2023-04-27T00:32:48.040Z,99714.53
2023-04-27T00:35:19.022Z,99712.25
2023-04-27T00:37:48.133Z,99736.13
2023-04-27T00:40:18.948Z,99740.84
2023-04-27T00:42:49.067Z,99743.66
2023-04-27T00:45:18.985Z,99718.50
2023-04-27T00:47:48.454Z,99744.59
2023-04-27T00:50:18.576Z,99755.47
2023-04-27T00:52:47.741Z,99744.84
2023-04-27T00:55:23.617Z,99713.44
2023-04-27T00:57:52.822Z,99744.38
2023-04-27T01:00:22.562Z,99732.28
2023-04-27T01:02:53.616Z,99740.25
2023-04-27T01:05:24.511Z,99748.72
2023-04-27T01:07:54.020Z,99750.16
2023-04-27T01:10:27.149Z,99699.19
2023-04-27T01:12:56.363Z,99744.84
2023-04-27T01:15:25.399Z,99732.06
2023-04-27T01:17:59.614Z,99747.50
2023-04-27T01:20:32.412Z,99735.44
2023-04-27T01:23:01.415Z,99737.47
2023-04-27T01:25:31.884Z,99750.84
2023-04-27T01:28:04.494Z,99743.59
2023-04-27T01:30:33.909Z,99736.09
2023-04-27T01:33:02.894Z,99690.72
2023-04-27T01:35:32.171Z,99742.00
2023-04-27T01:38:02.853Z,99744.16
2023-04-27T01:40:33.914Z,99735.28
2023-04-27T01:43:03.558Z,99743.72
2023-04-27T01:45:32.857Z,99748.22
2023-04-27T01:48:02.288Z,99744.50
2023-04-27T01:50:31.386Z,99741.56
2023-04-27T01:53:00.345Z,99754.59
2023-04-27T01:55:32.502Z,99751.00
2023-04-27T01:58:01.539Z,99737.50
2023-04-27T02:00:30.806Z,99755.94
2023-04-27T02:03:03.826Z,99755.03
2023-04-27T02:05:33.391Z,99759.75
2023-04-27T02:08:03.355Z,99758.66
2023-04-27T02:10:34.092Z,99692.03
2023-04-27T02:13:22.524Z,99737.31
2023-04-27T02:16:02.325Z,99769.25
2023-04-27T02:18:32.546Z,99749.91
2023-04-27T02:21:02.028Z,99761.81
2023-04-27T02:23:31.636Z,99775.66
2023-04-27T02:26:05.180Z,99768.91
2023-04-27T02:28:34.322Z,99762.09
2023-04-27T02:31:04.508Z,99777.63
2023-04-27T02:33:33.595Z,99669.84
2023-04-27T02:36:02.641Z,99784.34
2023-04-27T02:38:31.767Z,99793.34
2023-04-27T02:41:00.929Z,99783.56
2023-04-27T02:43:31.602Z,99783.00
2023-04-27T02:46:04.224Z,99779.06
2023-04-27T02:48:33.474Z,99765.31
2023-04-27T02:51:09.323Z,99757.38
2023-04-27T02:53:47.651Z,99773.66
2023-04-27T02:56:16.752Z,99796.94
2023-04-27T02:58:48.090Z,99803.72
2023-04-27T03:01:18.228Z,99801.66
2023-04-27T03:03:49.054Z,99812.50
2023-04-27T03:06:18.282Z,99807.31
2023-04-27T03:08:48.161Z,99818.03
2023-04-27T03:11:21.369Z,99817.44
2023-04-27T03:13:52.202Z,99818.25
2023-04-27T03:16:21.388Z,99814.31
2023-04-27T03:18:50.565Z,99822.94
2023-04-27T03:21:19.510Z,99825.66
2023-04-27T03:23:51.610Z,99821.19
2023-04-27T03:26:20.901Z,99841.38
2023-04-27T03:28:51.372Z,99830.97
2023-04-27T03:31:20.364Z,99830.13
2023-04-27T03:33:51.996Z,99825.38
2023-04-27T03:36:21.010Z,99837.78
2023-04-27T03:38:50.129Z,99844.84
2023-04-27T03:41:19.220Z,99827.09
2023-04-27T03:43:49.266Z,99836.78
2023-04-27T03:46:20.848Z,99803.28
2023-04-27T03:48:51.005Z,99854.66
2023-04-27T03:51:21.068Z,99836.06
2023-04-27T03:53:50.520Z,99851.59
2023-04-27T03:56:19.739Z,99844.25
2023-04-27T03:58:48.743Z,99861.66
2023-04-27T04:01:25.473Z,99831.94
2023-04-27T04:03:54.625Z,99868.00
2023-04-27T04:06:23.991Z,99854.25
2023-04-27T04:08:53.163Z,99841.53
2023-04-27T04:11:22.664Z,99850.22
2023-04-27T04:13:55.379Z,99856.84
2023-04-27T04:16:26.358Z,99848.38
2023-04-27T04:18:56.472Z,99859.94
2023-04-27T04:21:28.380Z,99849.63
2023-04-27T04:23:57.370Z,99864.66
2023-04-27T04:26:27.372Z,99861.19
2023-04-27T04:28:57.223Z,99843.63
2023-04-27T04:31:27.902Z,99854.13
2023-04-27T04:33:57.427Z,99824.09
2023-04-27T04:36:29.127Z,99852.47
2023-04-27T04:39:01.675Z,99859.94
2023-04-27T04:41:30.764Z,99855.75
2023-04-27T04:44:03.278Z,99853.72
2023-04-27T04:46:37.458Z,99810.81
2023-04-27T04:49:09.994Z,99820.63
2023-04-27T04:51:46.307Z,99840.38
2023-04-27T04:54:15.436Z,99842.13
2023-04-27T04:56:44.459Z,99853.09
2023-04-27T04:59:15.582Z,99859.03
2023-04-27T05:01:47.305Z,99843.41
2023-04-27T05:04:18.794Z,99843.41
2023-04-27T05:06:48.703Z,99871.25
2023-04-27T05:09:19.315Z,99869.59
2023-04-27T05:11:48.364Z,99884.03
2023-04-27T05:14:18.001Z,99877.91
2023-04-27T05:16:49.468Z,99838.47
2023-04-27T05:19:21.017Z,99860.72
2023-04-27T05:21:50.505Z,99876.38
2023-04-27T05:24:20.097Z,99863.81
2023-04-27T05:26:51.525Z,99867.78
2023-04-27T05:29:20.735Z,99879.00
2023-04-27T05:31:56.068Z,99874.31
2023-04-27T05:34:25.692Z,99752.19
2023-04-27T05:36:57.523Z,99891.38
2023-04-27T05:39:26.836Z,99885.19
2023-04-27T05:42:02.876Z,99903.28
2023-04-27T05:44:36.808Z,99873.94
2023-04-27T05:47:07.420Z,99877.47
2023-04-27T05:49:37.245Z,99892.44
2023-04-27T05:52:17.574Z,99804.84
2023-04-27T05:54:55.780Z,99873.84
2023-04-27T05:57:25.861Z,99887.06
2023-04-27T06:00:00.470Z,99881.91
2023-04-27T06:02:31.093Z,99874.06
2023-04-27T06:05:03.318Z,99850.03
2023-04-27T06:07:32.879Z,99897.28
2023-04-27T06:10:01.870Z,99888.28
2023-04-27T06:12:31.059Z,99893.78
2023-04-27T06:15:00.217Z,99882.00
2023-04-27T06:17:30.981Z,99903.69
2023-04-27T06:20:09.504Z,99903.56
2023-04-27T06:22:44.216Z,99909.66
2023-04-27T06:25:15.425Z,99877.22
2023-04-27T06:27:44.463Z,99913.63
2023-04-27T06:30:17.560Z,99901.69
2023-04-27T06:32:48.786Z,99890.97
2023-04-27T06:35:18.700Z,99900.03
2023-04-27T06:37:48.958Z,99913.09
2023-04-27T06:40:21.209Z,99926.09
2023-04-27T06:42:52.890Z,99916.66
2023-04-27T06:45:26.658Z,99911.88
2023-04-27T06:47:59.299Z,99923.66
2023-04-27T06:50:28.524Z,99893.69
2023-04-27T06:52:58.024Z,99920.09
2023-04-27T06:55:33.097Z,99934.34
2023-04-27T06:58:02.380Z,99939.97
2023-04-27T07:00:32.312Z,99932.50
2023-04-27T07:03:04.166Z,99939.50
2023-04-27T07:05:39.097Z,99862.38
2023-04-27T07:08:10.313Z,99839.16
2023-04-27T07:10:53.046Z,99736.75
2023-04-27T07:13:28.139Z,99811.16
2023-04-27T07:16:08.213Z,99920.63
2023-04-27T07:18:42.089Z,99943.50
2023-04-27T07:21:16.422Z,99952.22
2023-04-27T07:23:46.750Z,99931.34
2023-04-27T07:26:18.144Z,99908.41
2023-04-27T07:28:50.528Z,99787.25
2023-04-27T07:31:20.228Z,99928.66
2023-04-27T07:33:51.529Z,99951.47
2023-04-27T07:36:24.927Z,99962.34
2023-04-27T07:38:54.576Z,99954.28
2023-04-27T07:41:24.563Z,99904.13
2023-04-27T07:44:04.963Z,99933.75
2023-04-27T07:46:34.349Z,99952.50
2023-04-27T07:49:12.038Z,99940.44
2023-04-27T07:51:46.411Z,99949.41
2023-04-27T08:02:54.049Z,99826.53
2023-04-27T08:05:26.086Z,99964.38
2023-04-27T08:07:56.401Z,99968.44
2023-04-27T08:10:36.367Z,99936.06
2023-04-27T08:13:05.630Z,99938.34
2023-04-27T08:15:37.474Z,99930.97
2023-04-27T08:18:08.532Z,99943.78
2023-04-27T08:20:41.812Z,99964.56
2023-04-27T08:23:14.193Z,99949.53
2023-04-27T08:25:43.244Z,99968.41
2023-04-27T08:28:12.488Z,99974.94
2023-04-27T08:30:43.624Z,99982.50
2023-04-27T08:33:16.452Z,99988.81
2023-04-27T08:35:47.158Z,99983.09
2023-04-27T08:38:19.454Z,99999.69
2023-04-27T08:40:49.087Z,99997.69
2023-04-27T08:43:18.482Z,99997.28
2023-04-27T08:45:51.266Z,99996.31
2023-04-27T08:48:27.737Z,100004.00
2023-04-27T08:51:00.863Z,99993.03
2023-04-27T08:53:30.720Z,100001.84
2023-04-27T08:55:59.928Z,99974.91
2023-04-27T08:58:38.471Z,99994.38
2023-04-27T09:01:08.225Z,100002.81
2023-04-27T09:03:38.149Z,99996.44
2023-04-27T09:06:28.318Z,99918.59
2023-04-27T09:09:09.026Z,99897.69
2023-04-27T09:11:39.988Z,99960.69
2023-04-27T09:14:21.785Z,99917.25
2023-04-27T09:16:57.535Z,100007.69
2023-04-27T09:19:27.734Z,100014.44
2023-04-27T09:22:09.252Z,100011.63
2023-04-27T09:24:39.108Z,100001.13
2023-04-27T09:27:09.128Z,99989.66
2023-04-27T09:29:39.903Z,99993.28
2023-04-27T09:32:21.312Z,100011.19
2023-04-27T09:34:51.064Z,99995.81
2023-04-27T09:37:24.223Z,100010.44
2023-04-27T09:39:53.541Z,100007.66
2023-04-27T09:42:25.409Z,99973.03
2023-04-27T09:44:57.985Z,99986.13
2023-04-27T09:47:28.861Z,100005.88
2023-04-27T09:50:03.737Z,99985.16
2023-04-27T09:52:37.724Z,100002.50
2023-04-27T09:55:12.033Z,99972.78
2023-04-27T09:57:50.613Z,100007.16
2023-04-27T10:00:36.841Z,99982.28
2023-04-27T10:03:17.972Z,99932.19
2023-04-27T10:06:42.688Z,99968.03
2023-04-27T10:09:15.058Z,100011.94
2023-04-27T10:11:45.577Z,100005.72
2023-04-27T10:14:25.267Z,99991.97
2023-04-27T10:16:59.101Z,100004.69
2023-04-27T10:19:29.027Z,99994.25
2023-04-27T10:22:08.177Z,99999.94
2023-04-27T10:24:39.848Z,100001.25
2023-04-27T10:27:11.716Z,99983.09
2023-04-27T10:29:49.078Z,100016.16
2023-04-27T10:32:24.325Z,100025.88
2023-04-27T10:35:30.158Z,100010.84
2023-04-27T10:38:19.125Z,99969.19
2023-04-27T10:40:58.177Z,100057.44
2023-04-27T10:43:31.202Z,100039.75
2023-04-27T10:46:09.591Z,99939.44
2023-04-27T10:48:42.470Z,100048.84
2023-04-27T10:51:16.757Z,99970.97
2023-04-27T10:53:47.043Z,100048.03
2023-04-27T10:56:17.877Z,100048.00
2023-04-27T10:58:49.190Z,100049.31
2023-04-27T11:01:26.138Z,100044.72
2023-04-27T11:03:59.224Z,100052.88
2023-04-27T11:06:30.600Z,100053.94
2023-04-27T11:09:06.564Z,99990.03
2023-04-27T11:11:37.885Z,100051.50
2023-04-27T11:14:08.232Z,100029.19
2023-04-27T11:16:47.587Z,100032.16
2023-04-27T11:19:17.356Z,100044.59
2023-04-27T11:21:47.885Z,100033.09
2023-04-27T11:24:18.940Z,100054.16
2023-04-27T11:26:54.468Z,100042.69
2023-04-27T11:29:24.500Z,100054.38
2023-04-27T11:31:53.851Z,100050.88
2023-04-27T11:34:24.494Z,100053.53
2023-04-27T11:39:36.488Z,100063.88
2023-04-27T11:42:22.114Z,100073.50
2023-04-27T11:44:56.165Z,100059.84
2023-04-27T11:47:27.839Z,100058.66
2023-04-27T11:49:58.428Z,100065.94
2023-04-27T11:52:30.437Z,100060.00
2023-04-27T11:55:01.915Z,100076.28
2023-04-27T11:57:36.685Z,100077.31
2023-04-27T12:00:11.618Z,100055.97
2023-04-27T12:02:46.207Z,100048.31
2023-04-27T12:05:17.388Z,100059.78
2023-04-27T12:07:51.918Z,100034.03
2023-04-27T12:10:23.473Z,100068.16
2023-04-27T12:12:57.131Z,100064.91
2023-04-27T12:15:26.211Z,100060.66
2023-04-27T12:17:55.809Z,100049.56
2023-04-27T12:20:25.511Z,100048.06
2023-04-27T12:22:55.669Z,100067.13
2023-04-27T12:25:25.312Z,100055.44
2023-04-27T12:27:56.450Z,100064.41
2023-04-27T12:30:25.942Z,100053.06
2023-04-27T12:32:54.990Z,100069.69
2023-04-27T12:35:24.528Z,100053.38
2023-04-27T12:37:53.887Z,100086.94
2023-04-27T12:40:25.889Z,100077.97
2023-04-27T12:42:58.492Z,100078.13
2023-04-27T12:45:35.597Z,100083.91
2023-04-27T12:48:06.410Z,100051.03
2023-04-27T12:50:39.009Z,100069.19
2023-04-27T12:53:08.120Z,100074.84
2023-04-27T12:55:38.325Z,100058.88
2023-04-27T12:58:10.401Z,100057.09
2023-04-27T13:00:46.516Z,100067.13
2023-04-27T13:03:45.030Z,100081.94
2023-04-27T13:06:14.821Z,100084.69
2023-04-27T13:09:24.101Z,99989.66
2023-04-27T13:11:54.550Z,100074.84
2023-04-27T13:14:28.776Z,100092.38
2023-04-27T13:16:59.464Z,100089.69
2023-04-27T13:19:58.455Z,100097.16
2023-04-27T13:22:30.649Z,100085.97
2023-04-27T13:25:00.142Z,100105.22
2023-04-27T13:27:42.279Z,100108.25
2023-04-27T13:30:14.239Z,100102.25
2023-04-27T13:32:43.270Z,100110.72
2023-04-27T13:35:33.958Z,100124.06
2023-04-27T13:38:03.626Z,100105.88
2023-04-27T13:40:34.080Z,100113.88
2023-04-27T13:43:03.312Z,100120.38
2023-04-27T13:45:34.076Z,100121.66
2023-04-27T13:48:07.163Z,100095.78
2023-04-27T13:50:36.800Z,100092.72
2023-04-27T13:53:06.293Z,100108.47
2023-04-27T13:55:36.982Z,100108.13
2023-04-27T13:58:12.033Z,100100.59
2023-04-27T14:00:42.767Z,100116.72
2023-04-27T14:03:12.702Z,100116.84
2023-04-27T14:05:42.020Z,100125.75
2023-04-27T14:08:13.932Z,100115.63
2023-04-27T14:10:43.426Z,100103.56
2023-04-27T14:13:13.629Z,100109.03
2023-04-27T14:15:44.228Z,100116.88
2023-04-27T14:18:14.606Z,100125.53
2023-04-27T14:20:46.074Z,100125.81
2023-04-27T14:23:15.713Z,100122.41
2023-04-27T14:25:47.414Z,100135.16
2023-04-27T14:28:19.581Z,100113.19
2023-04-27T14:30:51.699Z,100072.00
2023-04-27T14:33:34.062Z,100092.88
2023-04-27T14:36:05.984Z,100135.22
2023-04-27T14:38:45.065Z,100148.28
2023-04-27T14:41:22.218Z,100132.09
2023-04-27T14:44:03.872Z,100141.59
2023-04-27T14:46:35.236Z,100138.53
2023-04-27T14:49:09.820Z,100152.72
2023-04-27T14:51:38.924Z,100150.25
2023-04-27T14:54:09.353Z,100157.78
2023-04-27T14:56:41.269Z,100153.16
2023-04-27T14:59:13.366Z,100163.34
2023-04-27T15:01:44.127Z,100168.06
2023-04-27T15:04:15.720Z,100154.22
2023-04-27T15:06:45.007Z,100159.03
2023-04-27T15:09:15.529Z,100151.69
2023-04-27T15:11:45.213Z,100158.09
2023-04-27T15:14:16.896Z,100152.56
2023-04-27T15:16:47.507Z,100164.75
2023-04-27T15:19:19.496Z,100114.63
2023-04-27T15:21:54.684Z,100133.28
2023-04-27T15:24:27.253Z,100155.31
2023-04-27T15:26:58.999Z,100159.25
2023-04-27T15:29:29.060Z,100156.44
2023-04-27T15:32:04.957Z,100154.53
2023-04-27T15:34:39.572Z,100152.13
2023-04-27T15:37:11.621Z,100142.00
2023-04-27T15:39:42.308Z,100116.88
2023-04-27T15:42:14.009Z,100155.66
2023-04-27T15:44:43.277Z,100140.00
2023-04-27T15:47:17.306Z,100156.47
2023-04-27T15:49:57.104Z,100143.53
2023-04-27T15:52:51.307Z,100157.97
2023-04-27T15:55:30.496Z,100142.84
2023-04-27T15:58:06.215Z,100169.16
2023-04-27T16:00:38.245Z,100174.47
2023-04-27T16:03:11.339Z,100144.13
2023-04-27T16:05:43.599Z,100175.97
2023-04-27T16:08:13.458Z,100181.06
2023-04-27T16:10:46.733Z,100093.59
2023-04-27T16:13:16.181Z,100192.66
2023-04-27T16:15:47.113Z,100177.38
2023-04-27T16:18:17.838Z,100165.88
2023-04-27T16:20:50.980Z,100194.00
2023-04-27T16:23:20.345Z,100157.19
2023-04-27T16:25:52.893Z,100181.34
2023-04-27T16:28:45.977Z,100183.38
2023-04-27T16:31:21.870Z,100160.28
2023-04-27T16:33:57.894Z,100147.28
2023-04-27T16:36:30.477Z,100170.53
2023-04-27T16:39:00.200Z,100176.38
2023-04-27T16:41:29.724Z,100185.72
2023-04-27T16:44:04.452Z,100149.94
2023-04-27T16:46:39.896Z,100178.78
2023-04-27T16:49:28.419Z,100149.41
2023-04-27T16:52:11.488Z,100180.25
2023-04-27T16:54:40.936Z,100186.38
2023-04-27T16:57:20.646Z,100184.50
2023-04-27T16:59:50.357Z,100172.16
2023-04-27T17:02:25.026Z,100190.44
2023-04-27T17:05:06.469Z,100180.34
2023-04-27T17:07:36.107Z,100165.31
2023-04-27T17:10:09.303Z,100187.50
2023-04-27T17:12:41.992Z,100211.31
2023-04-27T17:15:12.588Z,100200.34
2023-04-27T17:17:44.633Z,100220.31
2023-04-27T17:20:15.954Z,100198.44
2023-04-27T17:22:49.424Z,100210.97
2023-04-27T17:25:18.558Z,100223.56
2023-04-27T17:27:48.191Z,100235.78
2023-04-27T17:30:25.249Z,100249.50
2023-04-27T17:32:54.578Z,100248.00
2023-04-27T17:35:26.846Z,100237.91
2023-04-27T17:38:01.552Z,100226.44
2023-04-27T17:40:32.001Z,100250.84
2023-04-27T17:43:01.125Z,100240.63
2023-04-27T17:45:32.092Z,100219.81
2023-04-27T17:48:02.293Z,100250.84
2023-04-27T17:50:48.702Z,100244.59
2023-04-27T17:53:18.657Z,100105.47
2023-04-27T17:55:52.815Z,100252.09
2023-04-27T17:58:22.282Z,100244.25
2023-04-27T18:00:54.509Z,100208.78
2023-04-27T18:03:36.519Z,100238.16
2023-04-27T18:06:35.861Z,100262.88
2023-04-27T18:09:10.893Z,100198.81
2023-04-27T18:11:41.372Z,100260.56
2023-04-27T18:14:11.536Z,100251.34
2023-04-27T18:16:41.126Z,100266.41
2023-04-27T18:19:22.984Z,100263.69
2023-04-27T18:21:54.757Z,100159.13
2023-04-27T18:24:26.939Z,100235.13
2023-04-27T18:26:56.255Z,100282.13
2023-04-27T18:29:25.594Z,100277.34
2023-04-27T18:31:55.303Z,100242.16
2023-04-27T18:34:24.947Z,100276.16
2023-04-27T18:36:55.622Z,100274.72
2023-04-27T18:39:25.181Z,100261.03
2023-04-27T18:41:55.358Z,100275.47
2023-04-27T18:44:25.468Z,100274.03
2023-04-27T18:47:00.155Z,100258.91
2023-04-27T18:49:33.299Z,100276.09
2023-04-27T18:52:07.479Z,100285.47
2023-04-27T18:54:38.806Z,100284.00
2023-04-27T18:57:11.590Z,100204.72
2023-04-27T18:59:41.365Z,100238.69
2023-04-27T19:02:17.349Z,100247.13
2023-04-27T19:04:53.127Z,100270.16
2023-04-27T19:07:33.522Z,100255.78
2023-04-27T19:10:03.043Z,100272.13
2023-04-27T19:12:32.241Z,100257.44
2023-04-27T19:15:45.520Z,100286.88
2023-04-27T19:18:48.865Z,100306.78
2023-04-27T19:21:42.050Z,100148.19
2023-04-27T19:24:15.866Z,100285.84
2023-04-27T19:26:47.953Z,100292.72
2023-04-27T19:29:23.180Z,100288.69
2023-04-27T19:31:54.033Z,100276.38
2023-04-27T19:34:37.342Z,100308.34
2023-04-27T19:37:08.204Z,100286.13
2023-04-27T19:39:42.501Z,100197.53
2023-04-27T19:42:14.212Z,100118.72
2023-04-27T19:44:46.439Z,100260.84
2023-04-27T19:47:16.608Z,100314.63
2023-04-27T19:49:49.084Z,100310.88
2023-04-27T19:52:19.225Z,100304.78
2023-04-27T19:55:01.577Z,100251.63
2023-04-27T19:57:33.880Z,100292.09
2023-04-27T20:00:05.109Z,100327.63
2023-04-27T20:02:43.153Z,100335.28
2023-04-27T20:05:13.704Z,100328.34
2023-04-27T20:07:43.528Z,100326.75
2023-04-27T20:10:14.720Z,100332.84
2023-04-27T20:12:55.388Z,100331.88
2023-04-27T20:15:26.581Z,100312.13
2023-04-27T20:17:55.881Z,100337.19
2023-04-27T20:20:26.622Z,100331.44
2023-04-27T20:22:56.498Z,100321.16
2023-04-27T20:25:31.249Z,100324.97
2023-04-27T20:28:00.736Z,100329.97
2023-04-27T20:30:30.449Z,100330.38
2023-04-27T20:33:01.775Z,100319.13
2023-04-27T20:35:31.516Z,100307.25
2023-04-27T20:38:02.139Z,100329.31
2023-04-27T20:40:32.874Z,100338.16
2023-04-27T20:43:03.554Z,100333.59
2023-04-27T20:45:34.536Z,100342.28
2023-04-27T20:48:03.807Z,100339.78
2023-04-27T20:50:33.327Z,100336.34
2023-04-27T20:53:03.065Z,100329.97
2023-04-27T20:55:34.581Z,100343.97
2023-04-27T20:58:03.825Z,100345.59
2023-04-27T21:00:33.557Z,100311.03
2023-04-27T21:03:03.034Z,100344.31
2023-04-27T21:05:32.541Z,100322.53
2023-04-27T21:08:02.096Z,100354.63
2023-04-27T21:10:31.670Z,100335.72
2023-04-27T21:13:04.226Z,100294.25
2023-04-27T21:15:33.835Z,100350.16
2023-04-27T21:18:06.343Z,100346.56
2023-04-27T21:20:35.752Z,100355.41
2023-04-27T21:23:04.789Z,100343.81
2023-04-27T21:25:34.966Z,100331.47
2023-04-27T21:28:25.062Z,100344.03
2023-04-27T21:30:54.163Z,100259.41
2023-04-27T21:33:24.312Z,100344.66
2023-04-27T21:35:53.989Z,100333.81
2023-04-27T21:38:22.924Z,100345.28
2023-04-27T21:40:52.600Z,100319.59
2023-04-27T21:43:23.398Z,100346.78
2023-04-27T21:45:53.750Z,100345.84
2023-04-27T21:48:22.819Z,100342.53
2023-04-27T21:50:52.173Z,100326.25
2023-04-27T21:53:21.308Z,100351.97
2023-04-27T21:55:53.509Z,100341.97
2023-04-27T21:58:26.586Z,100329.97
2023-04-27T22:00:56.078Z,100340.38
2023-04-27T22:03:25.690Z,100334.63
2023-04-27T22:05:57.701Z,100293.53
2023-04-27T22:08:32.907Z,100311.50
2023-04-27T22:11:02.180Z,100329.97
2023-04-27T22:13:32.659Z,100327.13
2023-04-27T22:16:01.878Z,100329.34
2023-04-27T22:18:31.195Z,100326.81
2023-04-27T22:21:00.594Z,100313.81
2023-04-27T22:23:31.212Z,100325.09
2023-04-27T22:26:00.551Z,100329.66
2023-04-27T22:28:29.396Z,100328.94
2023-04-27T22:31:05.868Z,100299.16
2023-04-27T22:33:37.162Z,100330.41
2023-04-27T22:36:07.579Z,100333.19
2023-04-27T22:38:37.809Z,100335.72
2023-04-27T22:41:07.236Z,100329.22
2023-04-27T22:43:40.586Z,100325.84
2023-04-27T22:46:11.031Z,100298.09
2023-04-27T22:48:40.027Z,100331.88
2023-04-27T22:51:10.106Z,100326.16
2023-04-27T22:53:39.337Z,100317.66
2023-04-27T22:56:08.899Z,100315.13
2023-04-27T22:58:37.975Z,100326.50
2023-04-27T23:01:07.040Z,100332.75
2023-04-27T23:03:37.791Z,100304.50
2023-04-27T23:06:07.741Z,100301.06
2023-04-27T23:08:37.304Z,100312.13
2023-04-27T23:11:13.708Z,100315.97
2023-04-27T23:13:42.977Z,100305.75
2023-04-27T23:16:12.056Z,100326.59
2023-04-27T23:18:42.702Z,100274.72
2023-04-27T23:21:11.818Z,100274.28
2023-04-27T23:23:40.904Z,100310.00
2023-04-27T23:26:14.629Z,100323.84
2023-04-27T23:28:44.062Z,100326.19
2023-04-27T23:31:14.799Z,100304.47
2023-04-27T23:33:45.131Z,100310.00
2023-04-27T23:36:17.058Z,100310.44
2023-04-27T23:38:46.596Z,100318.09
2023-04-27T23:41:15.703Z,100321.28
2023-04-27T23:43:48.318Z,100324.88
2023-04-27T23:46:17.813Z,100323.19
2023-04-27T23:48:48.418Z,100325.84
2023-04-27T23:51:20.572Z,100326.38
2023-04-27T23:53:49.633Z,100328.59
2023-04-27T23:56:19.310Z,100316.59
2023-04-27T23:58:48.274Z,100316.59
